AAY1096 KPIE-KGSP
Flight info
| Callsign | AAY1096 |
|---|---|
| Flight time | 1h 22m |
| Altitude | 37000 |
| Route | BAYPO2 CAMJO HEPAR TWINS IRQ PROVN MCHLN2 |
| Aircraft | A319/M-SDE3FGHIRWY/LB1 |
Departure
| Time | 2026-04-27 23:59 |
|---|---|
| Airport | St. Petersburg Clearwater International Airport (KPIE) |
Arrival
| Time | 2026-04-28 01:21 |
|---|---|
| Airport | Greenville-Spartanburg International Airport (KGSP) |
| Time | Latitude | Longitude | Altitude | Speed | Heading |
|---|---|---|---|---|---|
| 2026-04-27 23:25 | 27.90743 | -82.69295 | 25 ft | 0 kts | 178° |
| 2026-04-27 23:46 | 27.90756 | -82.69295 | 27 ft | 4 kts | 178° |
| 2026-04-27 23:47 | 27.90783 | -82.69296 | 26 ft | 4 kts | 178° |
| 2026-04-27 23:47 | 27.90805 | -82.69298 | 26 ft | 4 kts | 155° |
| 2026-04-27 23:47 | 27.90823 | -82.69317 | 26 ft | 4 kts | 111° |
| 2026-04-27 23:47 | 27.90829 | -82.69346 | 27 ft | 4 kts | 92° |
| 2026-04-27 23:48 | 27.90829 | -82.69359 | 27 ft | 0 kts | 88° |
| 2026-04-27 23:50 | 27.90830 | -82.69343 | 26 ft | 2 kts | 88° |
| 2026-04-27 23:50 | 27.90831 | -82.69316 | 24 ft | 8 kts | 88° |
| 2026-04-27 23:50 | 27.90833 | -82.69242 | 24 ft | 10 kts | 88° |
| 2026-04-27 23:50 | 27.90835 | -82.69166 | 24 ft | 10 kts | 88° |
| 2026-04-27 23:51 | 27.90837 | -82.69087 | 24 ft | 10 kts | 88° |
| 2026-04-27 23:51 | 27.90839 | -82.69015 | 24 ft | 8 kts | 88° |
| 2026-04-27 23:51 | 27.90868 | -82.68973 | 24 ft | 6 kts | 14° |
| 2026-04-27 23:51 | 27.90899 | -82.68977 | 24 ft | 3 kts | 352° |
| 2026-04-27 23:52 | 27.90953 | -82.68987 | 25 ft | 10 kts | 351° |
| 2026-04-27 23:52 | 27.91013 | -82.68997 | 24 ft | 7 kts | 351° |
| 2026-04-27 23:52 | 27.91052 | -82.69004 | 23 ft | 4 kts | 351° |
| 2026-04-27 23:52 | 27.91072 | -82.69007 | 23 ft | 2 kts | 351° |
| 2026-04-27 23:53 | 27.91148 | -82.69020 | 24 ft | 16 kts | 351° |
| 2026-04-27 23:53 | 27.91253 | -82.69038 | 24 ft | 14 kts | 351° |
| 2026-04-27 23:53 | 27.91345 | -82.69054 | 24 ft | 12 kts | 351° |
| 2026-04-27 23:53 | 27.91416 | -82.69066 | 24 ft | 9 kts | 351° |
| 2026-04-27 23:54 | 27.91465 | -82.69075 | 24 ft | 6 kts | 351° |
| 2026-04-27 23:54 | 27.91543 | -82.69089 | 24 ft | 17 kts | 351° |
| 2026-04-27 23:54 | 27.91659 | -82.69110 | 24 ft | 17 kts | 351° |
| 2026-04-27 23:54 | 27.91770 | -82.69130 | 24 ft | 16 kts | 351° |
| 2026-04-27 23:55 | 27.91874 | -82.69147 | 24 ft | 14 kts | 352° |
| 2026-04-27 23:55 | 27.91964 | -82.69162 | 24 ft | 12 kts | 352° |
| 2026-04-27 23:55 | 27.92032 | -82.69174 | 24 ft | 8 kts | 351° |
| 2026-04-27 23:55 | 27.92086 | -82.69184 | 24 ft | 11 kts | 351° |
| 2026-04-27 23:56 | 27.92162 | -82.69198 | 24 ft | 10 kts | 351° |
| 2026-04-27 23:56 | 27.92217 | -82.69208 | 24 ft | 6 kts | 351° |
| 2026-04-27 23:56 | 27.92260 | -82.69212 | 24 ft | 11 kts | 4° |
| 2026-04-27 23:56 | 27.92317 | -82.69171 | 23 ft | 0 kts | 60° |
| 2026-04-27 23:57 | 27.92324 | -82.69151 | 23 ft | 10 kts | 78° |
| 2026-04-27 23:57 | 27.92307 | -82.69070 | 22 ft | 11 kts | 147° |
| 2026-04-27 23:58 | 27.92267 | -82.69058 | 25 ft | 0 kts | 172° |
| 2026-04-27 23:58 | 27.92209 | -82.69048 | 23 ft | 37 kts | 171° |
| 2026-04-27 23:58 | 27.91654 | -82.68950 | 22 ft | 121 kts | 171° |
| 2026-04-27 23:58 | 27.90620 | -82.68764 | 158 ft | 171 kts | 168° |
| 2026-04-27 23:59 | 27.89392 | -82.68601 | 615 ft | 180 kts | 168° |
| 2026-04-27 23:59 | 27.88174 | -82.68410 | 1257 ft | 176 kts | 166° |
| 2026-04-27 23:59 | 27.86958 | -82.68200 | 2018 ft | 175 kts | 165° |
| 2026-04-27 23:59 | 27.85704 | -82.67980 | 2385 ft | 195 kts | 166° |
| 2026-04-28 00:00 | 27.84295 | -82.67691 | 2634 ft | 216 kts | 156° |
| 2026-04-28 00:00 | 27.83111 | -82.66627 | 2996 ft | 229 kts | 115° |
| 2026-04-28 00:00 | 27.82828 | -82.64833 | 3455 ft | 245 kts | 78° |
| 2026-04-28 00:00 | 27.83671 | -82.63152 | 4247 ft | 256 kts | 42° |
| 2026-04-28 00:01 | 27.85303 | -82.62283 | 5088 ft | 268 kts | 14° |
| 2026-04-28 00:01 | 27.87174 | -82.62058 | 5943 ft | 273 kts | 3° |
| 2026-04-28 00:01 | 27.89091 | -82.62023 | 6773 ft | 278 kts | 0° |
| 2026-04-28 00:01 | 27.91033 | -82.61980 | 7623 ft | 280 kts | 1° |
| 2026-04-28 00:02 | 27.92984 | -82.61861 | 8518 ft | 281 kts | 4° |
| 2026-04-28 00:02 | 27.94931 | -82.61662 | 9417 ft | 282 kts | 6° |
| 2026-04-28 00:02 | 27.96881 | -82.61402 | 10270 ft | 282 kts | 6° |
| 2026-04-28 00:02 | 27.98813 | -82.61105 | 10979 ft | 286 kts | 7° |
| 2026-04-28 00:03 | 28.00798 | -82.60778 | 11704 ft | 290 kts | 7° |
| 2026-04-28 00:03 | 28.02807 | -82.60438 | 12440 ft | 294 kts | 7° |
| 2026-04-28 00:03 | 28.04838 | -82.60093 | 13206 ft | 296 kts | 7° |
| 2026-04-28 00:03 | 28.06884 | -82.59746 | 13967 ft | 298 kts | 7° |
| 2026-04-28 00:04 | 28.08945 | -82.59401 | 14658 ft | 300 kts | 7° |
| 2026-04-28 00:04 | 28.13081 | -82.58714 | 16082 ft | 301 kts | 7° |
| 2026-04-28 00:04 | 28.15155 | -82.58369 | 16821 ft | 301 kts | 7° |
| 2026-04-28 00:05 | 28.17226 | -82.58023 | 17590 ft | 301 kts | 8° |
| 2026-04-28 00:05 | 28.19292 | -82.57692 | 18366 ft | 300 kts | 5° |
| 2026-04-28 00:05 | 28.21369 | -82.57631 | 19052 ft | 298 kts | 358° |
| 2026-04-28 00:05 | 28.22740 | -82.57675 | 19519 ft | 297 kts | 358° |
| 2026-04-28 00:06 | 28.25489 | -82.57760 | 20461 ft | 294 kts | 358° |
| 2026-04-28 00:06 | 28.27523 | -82.57820 | 21196 ft | 290 kts | 358° |
| 2026-04-28 00:06 | 28.29527 | -82.57876 | 21947 ft | 286 kts | 358° |
| 2026-04-28 00:06 | 28.31501 | -82.57932 | 22716 ft | 281 kts | 357° |
| 2026-04-28 00:07 | 28.33415 | -82.57987 | 23498 ft | 275 kts | 357° |
| 2026-04-28 00:07 | 28.35327 | -82.58044 | 24005 ft | 279 kts | 356° |
| 2026-04-28 00:07 | 28.37329 | -82.58105 | 24118 ft | 298 kts | 357° |
| 2026-04-28 00:07 | 28.39465 | -82.58167 | 24232 ft | 316 kts | 357° |
| 2026-04-28 00:08 | 28.41730 | -82.58228 | 24351 ft | 334 kts | 357° |
| 2026-04-28 00:08 | 28.44109 | -82.58290 | 24466 ft | 350 kts | 357° |
| 2026-04-28 00:08 | 28.46599 | -82.58350 | 24597 ft | 365 kts | 357° |
| 2026-04-28 00:08 | 28.49185 | -82.58412 | 24713 ft | 378 kts | 357° |
| 2026-04-28 00:09 | 28.51849 | -82.58477 | 24853 ft | 387 kts | 357° |
| 2026-04-28 00:09 | 28.54561 | -82.58544 | 25144 ft | 392 kts | 357° |
| 2026-04-28 00:09 | 28.57295 | -82.58612 | 25486 ft | 394 kts | 357° |
| 2026-04-28 00:09 | 28.60048 | -82.58681 | 25848 ft | 397 kts | 357° |
| 2026-04-28 00:10 | 28.62817 | -82.58750 | 26205 ft | 399 kts | 357° |
| 2026-04-28 00:10 | 28.65597 | -82.58818 | 26554 ft | 401 kts | 357° |
| 2026-04-28 00:10 | 28.68382 | -82.59037 | 26896 ft | 402 kts | 351° |
| 2026-04-28 00:10 | 28.71174 | -82.59429 | 27242 ft | 404 kts | 351° |
| 2026-04-28 00:11 | 28.73973 | -82.59821 | 27584 ft | 406 kts | 351° |
| 2026-04-28 00:11 | 28.76753 | -82.60206 | 27941 ft | 408 kts | 351° |
| 2026-04-28 00:11 | 28.79574 | -82.60599 | 28305 ft | 410 kts | 351° |
| 2026-04-28 00:11 | 28.82412 | -82.60996 | 28648 ft | 412 kts | 351° |
| 2026-04-28 00:12 | 28.85263 | -82.61395 | 28996 ft | 414 kts | 351° |
| 2026-04-28 00:12 | 28.88125 | -82.61795 | 29318 ft | 416 kts | 351° |
| 2026-04-28 00:12 | 28.91006 | -82.62197 | 29622 ft | 418 kts | 351° |
| 2026-04-28 00:12 | 28.93897 | -82.62598 | 29921 ft | 420 kts | 351° |
| 2026-04-28 00:13 | 28.96805 | -82.63000 | 30208 ft | 422 kts | 351° |
| 2026-04-28 00:13 | 28.99731 | -82.63406 | 30449 ft | 424 kts | 351° |
| 2026-04-28 00:13 | 29.02663 | -82.63815 | 30689 ft | 425 kts | 351° |
| 2026-04-28 00:13 | 29.05610 | -82.64229 | 30946 ft | 427 kts | 351° |
| 2026-04-28 00:14 | 29.08568 | -82.64646 | 31200 ft | 428 kts | 351° |
| 2026-04-28 00:14 | 29.11526 | -82.65065 | 31486 ft | 428 kts | 351° |
| 2026-04-28 00:14 | 29.14479 | -82.65479 | 31831 ft | 427 kts | 351° |
| 2026-04-28 00:14 | 29.17388 | -82.65886 | 32177 ft | 426 kts | 351° |
| 2026-04-28 00:15 | 29.20332 | -82.66298 | 32513 ft | 425 kts | 351° |
| 2026-04-28 00:15 | 29.23265 | -82.66708 | 32842 ft | 425 kts | 351° |
| 2026-04-28 00:15 | 29.26198 | -82.67124 | 33175 ft | 424 kts | 351° |
| 2026-04-28 00:15 | 29.29120 | -82.67539 | 33515 ft | 423 kts | 351° |
| 2026-04-28 00:16 | 29.32043 | -82.67953 | 33841 ft | 422 kts | 351° |
| 2026-04-28 00:16 | 29.34953 | -82.68364 | 34185 ft | 421 kts | 351° |
| 2026-04-28 00:16 | 29.37858 | -82.68773 | 34483 ft | 420 kts | 351° |
| 2026-04-28 00:16 | 29.40753 | -82.69179 | 34809 ft | 418 kts | 351° |
| 2026-04-28 00:17 | 29.43671 | -82.69323 | 35106 ft | 419 kts | 358° |
| 2026-04-28 00:17 | 29.46583 | -82.69303 | 35397 ft | 418 kts | 357° |
| 2026-04-28 00:17 | 29.49488 | -82.69283 | 35688 ft | 416 kts | 357° |
| 2026-04-28 00:17 | 29.52343 | -82.69262 | 35964 ft | 415 kts | 357° |
| 2026-04-28 00:18 | 29.55225 | -82.69242 | 36225 ft | 413 kts | 357° |
| 2026-04-28 00:18 | 29.58098 | -82.69220 | 36483 ft | 412 kts | 357° |
| 2026-04-28 00:18 | 29.60963 | -82.69198 | 36735 ft | 411 kts | 357° |
| 2026-04-28 00:18 | 29.63820 | -82.69175 | 37001 ft | 410 kts | 357° |
| 2026-04-28 00:19 | 29.66672 | -82.69156 | 37162 ft | 409 kts | 357° |
| 2026-04-28 00:19 | 29.72346 | -82.69125 | 37196 ft | 406 kts | 357° |
| 2026-04-28 00:20 | 29.78001 | -82.69097 | 37199 ft | 406 kts | 357° |
| 2026-04-28 00:20 | 29.83655 | -82.69060 | 37198 ft | 406 kts | 357° |
| 2026-04-28 00:21 | 29.89311 | -82.69019 | 37201 ft | 406 kts | 357° |
| 2026-04-28 00:21 | 29.94927 | -82.68984 | 37207 ft | 406 kts | 357° |
| 2026-04-28 00:22 | 30.00583 | -82.68953 | 37203 ft | 406 kts | 357° |
| 2026-04-28 00:22 | 30.06242 | -82.68919 | 37199 ft | 406 kts | 357° |
| 2026-04-28 00:23 | 30.10938 | -82.68898 | 37194 ft | 406 kts | 357° |
| 2026-04-28 00:23 | 30.16590 | -82.68861 | 37192 ft | 406 kts | 357° |
| 2026-04-28 00:24 | 30.22248 | -82.68815 | 37207 ft | 406 kts | 357° |
| 2026-04-28 00:24 | 30.27905 | -82.68780 | 37235 ft | 407 kts | 357° |
| 2026-04-28 00:25 | 30.33561 | -82.68746 | 37238 ft | 406 kts | 357° |
| 2026-04-28 00:25 | 30.39215 | -82.68713 | 37236 ft | 406 kts | 357° |
| 2026-04-28 00:26 | 30.44839 | -82.68682 | 37238 ft | 406 kts | 357° |
| 2026-04-28 00:26 | 30.50532 | -82.68604 | 37237 ft | 408 kts | 1° |
| 2026-04-28 00:27 | 30.56125 | -82.67527 | 37240 ft | 411 kts | 6° |
| 2026-04-28 00:27 | 30.61744 | -82.66322 | 37240 ft | 411 kts | 6° |
| 2026-04-28 00:28 | 30.67366 | -82.65123 | 37242 ft | 411 kts | 6° |
| 2026-04-28 00:28 | 30.72991 | -82.63926 | 37243 ft | 411 kts | 6° |
| 2026-04-28 00:29 | 30.78619 | -82.62721 | 37247 ft | 411 kts | 7° |
| 2026-04-28 00:29 | 30.84252 | -82.61518 | 37242 ft | 411 kts | 7° |
| 2026-04-28 00:30 | 30.89884 | -82.60316 | 37232 ft | 412 kts | 7° |
| 2026-04-28 00:30 | 30.95518 | -82.59114 | 37212 ft | 412 kts | 7° |
| 2026-04-28 00:31 | 31.01154 | -82.57900 | 37208 ft | 412 kts | 7° |
| 2026-04-28 00:31 | 31.06797 | -82.56684 | 37214 ft | 412 kts | 7° |
| 2026-04-28 00:32 | 31.12454 | -82.55599 | 37204 ft | 411 kts | 4° |
| 2026-04-28 00:32 | 31.18140 | -82.54817 | 37209 ft | 411 kts | 3° |
| 2026-04-28 00:33 | 31.23790 | -82.54081 | 37207 ft | 411 kts | 3° |
| 2026-04-28 00:33 | 31.29474 | -82.53275 | 37208 ft | 412 kts | 4° |
| 2026-04-28 00:34 | 31.35160 | -82.52428 | 37200 ft | 412 kts | 4° |
| 2026-04-28 00:34 | 31.40851 | -82.51579 | 37193 ft | 412 kts | 4° |
| 2026-04-28 00:35 | 31.46548 | -82.50748 | 37192 ft | 412 kts | 4° |
| 2026-04-28 00:35 | 31.52244 | -82.49916 | 37188 ft | 413 kts | 4° |
| 2026-04-28 00:36 | 31.57950 | -82.49083 | 37192 ft | 413 kts | 4° |
| 2026-04-28 00:36 | 31.63666 | -82.48241 | 37189 ft | 414 kts | 4° |
| 2026-04-28 00:37 | 31.69383 | -82.47398 | 37191 ft | 414 kts | 4° |
| 2026-04-28 00:37 | 31.75109 | -82.46553 | 37195 ft | 415 kts | 4° |
| 2026-04-28 00:38 | 31.80831 | -82.45706 | 37199 ft | 415 kts | 4° |
| 2026-04-28 00:38 | 31.86522 | -82.44868 | 37215 ft | 415 kts | 4° |
| 2026-04-28 00:39 | 31.92267 | -82.44020 | 37201 ft | 416 kts | 4° |
| 2026-04-28 00:39 | 31.98027 | -82.43166 | 37206 ft | 417 kts | 4° |
| 2026-04-28 00:40 | 32.03789 | -82.42311 | 37210 ft | 418 kts | 4° |
| 2026-04-28 00:40 | 32.09559 | -82.41453 | 37213 ft | 418 kts | 4° |
| 2026-04-28 00:41 | 32.15338 | -82.40588 | 37225 ft | 418 kts | 4° |
| 2026-04-28 00:41 | 32.21120 | -82.39728 | 37211 ft | 419 kts | 5° |
| 2026-04-28 00:42 | 32.26929 | -82.38867 | 37184 ft | 422 kts | 5° |
| 2026-04-28 00:42 | 32.32776 | -82.37997 | 37181 ft | 425 kts | 5° |
| 2026-04-28 00:43 | 32.38625 | -82.37124 | 37190 ft | 427 kts | 5° |
| 2026-04-28 00:43 | 32.44537 | -82.36239 | 37195 ft | 429 kts | 5° |
| 2026-04-28 00:44 | 32.50466 | -82.35350 | 37194 ft | 430 kts | 5° |
| 2026-04-28 00:44 | 32.56422 | -82.34452 | 37198 ft | 431 kts | 5° |
| 2026-04-28 00:45 | 32.62380 | -82.33549 | 37198 ft | 432 kts | 5° |
| 2026-04-28 00:45 | 32.68340 | -82.32650 | 37205 ft | 432 kts | 5° |
| 2026-04-28 00:46 | 32.74308 | -82.31756 | 37202 ft | 432 kts | 5° |
| 2026-04-28 00:46 | 32.80283 | -82.30852 | 37203 ft | 433 kts | 5° |
| 2026-04-28 00:47 | 32.86257 | -82.29904 | 37201 ft | 433 kts | 6° |
| 2026-04-28 00:47 | 32.92230 | -82.28932 | 37220 ft | 433 kts | 6° |
| 2026-04-28 00:48 | 32.98211 | -82.27961 | 37212 ft | 434 kts | 6° |
| 2026-04-28 00:48 | 33.04200 | -82.26991 | 37214 ft | 434 kts | 6° |
| 2026-04-28 00:49 | 33.10155 | -82.26033 | 37181 ft | 435 kts | 6° |
| 2026-04-28 00:49 | 33.13153 | -82.25550 | 36921 ft | 435 kts | 6° |
| 2026-04-28 00:49 | 33.16148 | -82.25065 | 36662 ft | 435 kts | 6° |
| 2026-04-28 00:49 | 33.19147 | -82.24580 | 36400 ft | 435 kts | 6° |
| 2026-04-28 00:50 | 33.22160 | -82.24096 | 35687 ft | 438 kts | 6° |
| 2026-04-28 00:50 | 33.25197 | -82.23607 | 34919 ft | 442 kts | 6° |
| 2026-04-28 00:50 | 33.28228 | -82.23118 | 34419 ft | 438 kts | 6° |
| 2026-04-28 00:50 | 33.31240 | -82.22634 | 33836 ft | 435 kts | 6° |
| 2026-04-28 00:51 | 33.34232 | -82.22152 | 33283 ft | 431 kts | 6° |
| 2026-04-28 00:51 | 33.37187 | -82.21671 | 32753 ft | 427 kts | 6° |
| 2026-04-28 00:51 | 33.40126 | -82.21191 | 32218 ft | 424 kts | 6° |
| 2026-04-28 00:51 | 33.43036 | -82.20717 | 31694 ft | 421 kts | 6° |
| 2026-04-28 00:52 | 33.45925 | -82.20246 | 31173 ft | 418 kts | 6° |
| 2026-04-28 00:52 | 33.48796 | -82.19778 | 30657 ft | 415 kts | 5° |
| 2026-04-28 00:52 | 33.51654 | -82.19314 | 30113 ft | 412 kts | 5° |
| 2026-04-28 00:52 | 33.54483 | -82.18857 | 29591 ft | 408 kts | 5° |
| 2026-04-28 00:53 | 33.57282 | -82.18406 | 29101 ft | 403 kts | 5° |
| 2026-04-28 00:53 | 33.60044 | -82.17959 | 28620 ft | 398 kts | 5° |
| 2026-04-28 00:53 | 33.62773 | -82.17513 | 28148 ft | 393 kts | 5° |
| 2026-04-28 00:53 | 33.65432 | -82.17077 | 27702 ft | 388 kts | 5° |
| 2026-04-28 00:54 | 33.68081 | -82.16522 | 27251 ft | 385 kts | 12° |
| 2026-04-28 00:54 | 33.70585 | -82.15413 | 26814 ft | 384 kts | 23° |
| 2026-04-28 00:54 | 33.72867 | -82.13738 | 26363 ft | 385 kts | 34° |
| 2026-04-28 00:54 | 33.74903 | -82.11584 | 25880 ft | 385 kts | 39° |
| 2026-04-28 00:55 | 33.76853 | -82.09401 | 25436 ft | 381 kts | 39° |
| 2026-04-28 00:55 | 33.78791 | -82.07238 | 24968 ft | 379 kts | 38° |
| 2026-04-28 00:55 | 33.80717 | -82.05091 | 24498 ft | 377 kts | 38° |
| 2026-04-28 00:55 | 33.82611 | -82.02977 | 24029 ft | 375 kts | 38° |
| 2026-04-28 00:56 | 33.84519 | -82.00846 | 23505 ft | 374 kts | 38° |
| 2026-04-28 00:56 | 33.86557 | -81.98893 | 23015 ft | 365 kts | 27° |
| 2026-04-28 00:56 | 33.88769 | -81.97588 | 22565 ft | 355 kts | 15° |
| 2026-04-28 00:56 | 33.91106 | -81.96888 | 22118 ft | 337 kts | 4° |
| 2026-04-28 00:57 | 33.93387 | -81.96773 | 21705 ft | 320 kts | 355° |
| 2026-04-28 00:57 | 33.95574 | -81.96862 | 21321 ft | 308 kts | 355° |
| 2026-04-28 00:57 | 33.97681 | -81.96940 | 20842 ft | 300 kts | 355° |
| 2026-04-28 00:57 | 33.99780 | -81.97015 | 20063 ft | 303 kts | 355° |
| 2026-04-28 00:58 | 34.01899 | -81.97094 | 19316 ft | 306 kts | 355° |
| 2026-04-28 00:58 | 34.04034 | -81.97172 | 18570 ft | 308 kts | 356° |
| 2026-04-28 00:58 | 34.06189 | -81.97249 | 17719 ft | 311 kts | 356° |
| 2026-04-28 00:58 | 34.08362 | -81.97326 | 16877 ft | 313 kts | 356° |
| 2026-04-28 00:59 | 34.10549 | -81.97403 | 16046 ft | 316 kts | 356° |
| 2026-04-28 00:59 | 34.12753 | -81.97482 | 15233 ft | 318 kts | 356° |
| 2026-04-28 00:59 | 34.14973 | -81.97562 | 14442 ft | 320 kts | 356° |
| 2026-04-28 00:59 | 34.17199 | -81.97643 | 13600 ft | 321 kts | 357° |
| 2026-04-28 01:00 | 34.19435 | -81.97723 | 12725 ft | 322 kts | 357° |
| 2026-04-28 01:00 | 34.21679 | -81.97803 | 11878 ft | 323 kts | 356° |
| 2026-04-28 01:00 | 34.23926 | -81.97870 | 11046 ft | 323 kts | 360° |
| 2026-04-28 01:00 | 34.26128 | -81.97328 | 10234 ft | 327 kts | 22° |
| 2026-04-28 01:01 | 34.28001 | -81.95791 | 9481 ft | 325 kts | 47° |
| 2026-04-28 01:01 | 34.29222 | -81.93596 | 9184 ft | 307 kts | 67° |
| 2026-04-28 01:01 | 34.29738 | -81.91181 | 8903 ft | 290 kts | 87° |
| 2026-04-28 01:01 | 34.29584 | -81.88824 | 8540 ft | 276 kts | 107° |
| 2026-04-28 01:02 | 34.28839 | -81.86748 | 8136 ft | 264 kts | 125° |
| 2026-04-28 01:02 | 34.27660 | -81.85144 | 7899 ft | 248 kts | 142° |
| 2026-04-28 01:02 | 34.26242 | -81.84069 | 7680 ft | 235 kts | 158° |
| 2026-04-28 01:02 | 34.24724 | -81.83525 | 7461 ft | 223 kts | 173° |
| 2026-04-28 01:03 | 34.23210 | -81.83325 | 7242 ft | 215 kts | 177° |
| 2026-04-28 01:03 | 34.21758 | -81.83427 | 7026 ft | 211 kts | 198° |
| 2026-04-28 01:03 | 34.20514 | -81.84286 | 6708 ft | 204 kts | 226° |
| 2026-04-28 01:03 | 34.19789 | -81.85707 | 6340 ft | 198 kts | 253° |
| 2026-04-28 01:04 | 34.19698 | -81.87339 | 5946 ft | 195 kts | 280° |
| 2026-04-28 01:04 | 34.20176 | -81.88854 | 5588 ft | 193 kts | 295° |
| 2026-04-28 01:04 | 34.20759 | -81.90339 | 5223 ft | 197 kts | 295° |
| 2026-04-28 01:04 | 34.21338 | -81.91828 | 5030 ft | 193 kts | 294° |
| 2026-04-28 01:05 | 34.21910 | -81.93300 | 5028 ft | 193 kts | 294° |
| 2026-04-28 01:05 | 34.22495 | -81.94765 | 5028 ft | 194 kts | 299° |
| 2026-04-28 01:05 | 34.23305 | -81.96074 | 5031 ft | 196 kts | 313° |
| 2026-04-28 01:05 | 34.24373 | -81.97094 | 5032 ft | 196 kts | 329° |
| 2026-04-28 01:06 | 34.25626 | -81.97751 | 4988 ft | 197 kts | 344° |
| 2026-04-28 01:06 | 34.26972 | -81.97997 | 4935 ft | 196 kts | 359° |
| 2026-04-28 01:06 | 34.28343 | -81.98030 | 4895 ft | 197 kts | 359° |
| 2026-04-28 01:06 | 34.29712 | -81.98072 | 4854 ft | 197 kts | 359° |
| 2026-04-28 01:07 | 34.31078 | -81.98119 | 4800 ft | 197 kts | 358° |
| 2026-04-28 01:07 | 34.32447 | -81.98168 | 4756 ft | 197 kts | 359° |
| 2026-04-28 01:07 | 34.33812 | -81.98215 | 4704 ft | 196 kts | 359° |
| 2026-04-28 01:07 | 34.34716 | -81.98243 | 4680 ft | 196 kts | 359° |
| 2026-04-28 01:08 | 34.36543 | -81.98303 | 4619 ft | 196 kts | 359° |
| 2026-04-28 01:08 | 34.37905 | -81.98349 | 4576 ft | 196 kts | 359° |
| 2026-04-28 01:08 | 34.39265 | -81.98397 | 4533 ft | 195 kts | 359° |
| 2026-04-28 01:08 | 34.40627 | -81.98445 | 4484 ft | 196 kts | 359° |
| 2026-04-28 01:09 | 34.41969 | -81.98490 | 4440 ft | 196 kts | 359° |
| 2026-04-28 01:09 | 34.43330 | -81.98535 | 4390 ft | 196 kts | 359° |
| 2026-04-28 01:09 | 34.44688 | -81.98581 | 4352 ft | 195 kts | 359° |
| 2026-04-28 01:09 | 34.46046 | -81.98630 | 4310 ft | 195 kts | 358° |
| 2026-04-28 01:10 | 34.47363 | -81.99008 | 4262 ft | 196 kts | 336° |
| 2026-04-28 01:10 | 34.48485 | -81.99933 | 4219 ft | 196 kts | 314° |
| 2026-04-28 01:10 | 34.49270 | -82.01269 | 4176 ft | 194 kts | 294° |
| 2026-04-28 01:10 | 34.49678 | -82.02826 | 4131 ft | 194 kts | 286° |
| 2026-04-28 01:11 | 34.50018 | -82.03830 | 4105 ft | 195 kts | 297° |
| 2026-04-28 01:11 | 34.50799 | -82.05171 | 4061 ft | 196 kts | 312° |
| 2026-04-28 01:11 | 34.51712 | -82.06395 | 4010 ft | 196 kts | 311° |
| 2026-04-28 01:11 | 34.52624 | -82.07614 | 3976 ft | 195 kts | 311° |
| 2026-04-28 01:12 | 34.53536 | -82.08837 | 3933 ft | 195 kts | 311° |
| 2026-04-28 01:12 | 34.54448 | -82.10062 | 3889 ft | 196 kts | 311° |
| 2026-04-28 01:12 | 34.55359 | -82.11290 | 3846 ft | 196 kts | 311° |
| 2026-04-28 01:12 | 34.56273 | -82.12518 | 3800 ft | 196 kts | 312° |
| 2026-04-28 01:13 | 34.57183 | -82.13741 | 3750 ft | 195 kts | 311° |
| 2026-04-28 01:13 | 34.59009 | -82.16190 | 3651 ft | 196 kts | 312° |
| 2026-04-28 01:13 | 34.59922 | -82.17416 | 3617 ft | 195 kts | 312° |
| 2026-04-28 01:14 | 34.60834 | -82.18641 | 3567 ft | 196 kts | 312° |
| 2026-04-28 01:14 | 34.61748 | -82.19864 | 3533 ft | 195 kts | 312° |
| 2026-04-28 01:14 | 34.62664 | -82.21087 | 3483 ft | 195 kts | 312° |
| 2026-04-28 01:14 | 34.63560 | -82.22292 | 3443 ft | 194 kts | 312° |
| 2026-04-28 01:15 | 34.64465 | -82.23511 | 3400 ft | 194 kts | 312° |
| 2026-04-28 01:15 | 34.65371 | -82.24732 | 3369 ft | 195 kts | 311° |
| 2026-04-28 01:15 | 34.66278 | -82.25953 | 3310 ft | 194 kts | 312° |
| 2026-04-28 01:15 | 34.67183 | -82.27175 | 3264 ft | 194 kts | 311° |
| 2026-04-28 01:16 | 34.68098 | -82.28411 | 3223 ft | 194 kts | 311° |
| 2026-04-28 01:16 | 34.68991 | -82.29616 | 3143 ft | 194 kts | 311° |
| 2026-04-28 01:16 | 34.69904 | -82.30848 | 3054 ft | 194 kts | 311° |
| 2026-04-28 01:16 | 34.70797 | -82.32047 | 3014 ft | 194 kts | 315° |
| 2026-04-28 01:17 | 34.71898 | -82.32982 | 3020 ft | 193 kts | 336° |
| 2026-04-28 01:17 | 34.73194 | -82.33383 | 3019 ft | 192 kts | 358° |
| 2026-04-28 01:17 | 34.74509 | -82.33202 | 3018 ft | 190 kts | 20° |
| 2026-04-28 01:17 | 34.75679 | -82.32486 | 3022 ft | 189 kts | 34° |
| 2026-04-28 01:18 | 34.76792 | -82.31637 | 3024 ft | 189 kts | 34° |
| 2026-04-28 01:18 | 34.77890 | -82.30800 | 3044 ft | 184 kts | 34° |
| 2026-04-28 01:18 | 34.78957 | -82.29987 | 3000 ft | 176 kts | 34° |
| 2026-04-28 01:18 | 34.79959 | -82.29224 | 2848 ft | 166 kts | 34° |
| 2026-04-28 01:19 | 34.80928 | -82.28485 | 2657 ft | 163 kts | 35° |
| 2026-04-28 01:19 | 34.81883 | -82.27756 | 2455 ft | 161 kts | 35° |
| 2026-04-28 01:19 | 34.82833 | -82.27031 | 2247 ft | 161 kts | 35° |
| 2026-04-28 01:19 | 34.83780 | -82.26308 | 2037 ft | 161 kts | 35° |
| 2026-04-28 01:20 | 34.84726 | -82.25586 | 1814 ft | 160 kts | 34° |
| 2026-04-28 01:20 | 34.85659 | -82.24874 | 1604 ft | 157 kts | 34° |
| 2026-04-28 01:20 | 34.86583 | -82.24168 | 1388 ft | 156 kts | 34° |
| 2026-04-28 01:20 | 34.87499 | -82.23468 | 1186 ft | 156 kts | 33° |
| 2026-04-28 01:21 | 34.88399 | -82.22780 | 987 ft | 154 kts | 34° |
| 2026-04-28 01:21 | 34.89167 | -82.22190 | 957 ft | 92 kts | 31° |
| 2026-04-28 01:21 | 34.89462 | -82.21972 | 960 ft | 19 kts | 31° |
| 2026-04-28 01:21 | 34.89615 | -82.21855 | 960 ft | 34 kts | 32° |
| 2026-04-28 01:22 | 34.89816 | -82.21695 | 960 ft | 35 kts | 32° |
| 2026-04-28 01:22 | 34.89943 | -82.21570 | 957 ft | 16 kts | 53° |
| 2026-04-28 01:22 | 34.90005 | -82.21455 | 958 ft | 17 kts | 62° |
| 2026-04-28 01:22 | 34.90033 | -82.21343 | 960 ft | 11 kts | 109° |
| 2026-04-28 01:23 | 34.89994 | -82.21323 | 959 ft | 3 kts | 221° |
| 2026-04-28 01:23 | 34.89958 | -82.21353 | 959 ft | 14 kts | 215° |
| 2026-04-28 01:23 | 34.89871 | -82.21421 | 960 ft | 16 kts | 208° |
| 2026-04-28 01:23 | 34.89773 | -82.21492 | 957 ft | 17 kts | 212° |
| 2026-04-28 01:24 | 34.89672 | -82.21570 | 958 ft | 17 kts | 212° |
| 2026-04-28 01:24 | 34.89566 | -82.21650 | 961 ft | 19 kts | 212° |
| 2026-04-28 01:24 | 34.89450 | -82.21738 | 958 ft | 20 kts | 211° |
| 2026-04-28 01:24 | 34.89368 | -82.21721 | 959 ft | 12 kts | 174° |
| 2026-04-28 01:25 | 34.89293 | -82.21758 | 960 ft | 12 kts | 212° |
| 2026-04-28 01:25 | 34.89229 | -82.21807 | 959 ft | 10 kts | 212° |
| 2026-04-28 01:25 | 34.89174 | -82.21850 | 958 ft | 9 kts | 212° |
| 2026-04-28 01:25 | 34.89128 | -82.21885 | 960 ft | 7 kts | 212° |
| 2026-04-28 01:26 | 34.89090 | -82.21915 | 959 ft | 6 kts | 212° |
| 2026-04-28 01:26 | 34.89047 | -82.21948 | 958 ft | 11 kts | 213° |
| 2026-04-28 01:26 | 34.88989 | -82.21991 | 959 ft | 9 kts | 205° |
| 2026-04-28 01:26 | 34.88935 | -82.21984 | 960 ft | 7 kts | 166° |
| 2026-04-28 01:27 | 34.88894 | -82.21963 | 956 ft | 6 kts | 153° |
| 2026-04-28 01:27 | 34.88860 | -82.21927 | 959 ft | 7 kts | 130° |
| 2026-04-28 01:27 | 34.88840 | -82.21843 | 960 ft | 14 kts | 89° |
| 2026-04-28 01:27 | 34.88892 | -82.21756 | 959 ft | 13 kts | 23° |
| 2026-04-28 01:28 | 34.88923 | -82.21767 | 957 ft | 2 kts | 318° |
| 2026-04-28 01:28 | 34.88935 | -82.21780 | 960 ft | 0 kts | 319° |
| 2026-04-28 01:28 | 34.88937 | -82.21783 | 960 ft | 0 kts | 319° |